Time;durP1;ratioP1;P1;durP2;ratioP2;P2;SDS_P1;SDS_P2;PMS_P1;PMS_P2;Temp;Humidity;BMP_temperature;BMP_pressure;BME280_temperature;BME280_humidity;BME280_pressure;Samples;Min_cycle;Max_cycle;Signal;HPM_P1;HPM_P2
2022/04/09 17:06:42;;;;;;;2.33;1.05;;;8.80;86.00;;;;;;4927239;29;20052;-95
2022/04/09 17:09:11;;;;;;;2.65;0.52;;;8.80;87.00;;;;;;4945198;29;20048;-96
2022/04/09 17:12:18;;;;;;;3.58;0.80;;;8.90;85.70;;;;;;4943358;28;20039;-92
2022/04/09 17:15:04;;;;;;;4.57;1.58;;;8.70;84.60;;;;;;4899206;29;20057;-93
2022/04/09 17:17:54;;;;;;;5.22;0.57;;;8.70;86.70;;;;;;4912067;29;20471;-92
2022/04/09 17:20:24;;;;;;;3.95;1.05;;;8.70;88.70;;;;;;4903231;29;20041;-92
2022/04/09 17:22:52;;;;;;;2.30;0.60;;;8.80;85.80;;;;;;4922315;29;20027;-93
2022/04/09 17:25:21;;;;;;;4.47;0.70;;;8.60;88.10;;;;;;4923947;23;20020;-77
2022/04/09 17:27:47;;;;;;;4.20;0.45;;;8.70;86.30;;;;;;4944771;28;20035;-77
2022/04/09 17:30:12;;;;;;;5.32;0.70;;;8.60;87.70;;;;;;4954168;28;20491;-78
2022/04/09 17:32:38;;;;;;;6.00;1.13;;;8.50;86.90;;;;;;4958585;28;20065;-82
2022/04/09 17:35:04;;;;;;;14.75;1.50;;;8.60;87.80;;;;;;4955800;28;20027;-77
2022/04/09 17:37:33;;;;;;;5.07;0.90;;;8.40;86.40;;;;;;4936084;29;20047;-77
2022/04/09 17:39:58;;;;;;;3.72;1.00;;;8.40;87.80;;;;;;4960381;28;20094;-77
2022/04/09 17:42:24;;;;;;;6.63;1.27;;;8.60;87.40;;;;;;4954655;28;20435;-76
2022/04/09 17:44:52;;;;;;;22.33;1.33;;;8.60;87.90;;;;;;4955759;28;20040;-77
2022/04/09 17:47:18;;;;;;;3.15;1.05;;;8.60;87.80;;;;;;4954696;28;20472;-77
2022/04/09 17:49:44;;;;;;;4.00;0.80;;;8.70;88.20;;;;;;4955069;28;20118;-77
2022/04/09 17:52:09;;;;;;;3.30;0.75;;;8.70;86.80;;;;;;4955173;28;20043;-78
2022/04/09 17:54:35;;;;;;;5.47;0.80;;;8.90;86.80;;;;;;4953617;29;20054;-78
2022/04/09 17:57:01;;;;;;;5.88;0.70;;;8.90;87.10;;;;;;4955583;28;20403;-78
2022/04/09 17:59:26;;;;;;;12.35;1.63;;;9.00;85.80;;;;;;4954676;28;20046;-78
2022/04/09 18:01:52;;;;;;;3.25;0.63;;;9.00;84.70;;;;;;4953541;28;20042;-77
2022/04/09 18:04:20;;;;;;;4.32;0.70;;;9.10;84.90;;;;;;4940650;29;20432;-78
2022/04/09 18:06:47;;;;;;;5.07;0.95;;;9.10;83.80;;;;;;4950166;28;20561;-78
2022/04/09 18:09:13;;;;;;;7.25;0.65;;;9.10;85.70;;;;;;4942419;28;20066;-78
2022/04/09 18:11:39;;;;;;;4.25;0.57;;;9.00;84.90;;;;;;4949493;28;20074;-77
2022/04/09 18:14:06;;;;;;;3.70;0.70;;;9.00;84.70;;;;;;4950572;28;20031;-77
2022/04/09 18:16:36;;;;;;;1.85;0.47;;;8.90;85.60;;;;;;4955017;28;20031;-78
2022/04/09 18:19:03;;;;;;;1.65;0.50;;;8.90;86.20;;;;;;4954504;28;20043;-77
2022/04/09 18:21:29;;;;;;;0.80;0.40;;;9.00;84.10;;;;;;4937367;29;20483;-78
2022/04/09 18:23:55;;;;;;;1.05;0.63;;;9.10;84.40;;;;;;4953969;28;20114;-78
2022/04/09 18:26:20;;;;;;;2.53;0.63;;;9.00;84.40;;;;;;4954967;28;20122;-78
2022/04/09 18:28:46;;;;;;;2.45;0.60;;;9.00;84.60;;;;;;4947449;28;20031;-78
2022/04/09 18:31:12;;;;;;;2.20;0.50;;;9.00;83.60;;;;;;4953199;28;20035;-78
2022/04/09 18:33:37;;;;;;;4.15;0.88;;;9.00;84.10;;;;;;4953066;28;20047;-77
2022/04/09 18:36:03;;;;;;;1.75;0.68;;;9.10;83.10;;;;;;4954368;28;20041;-77
2022/04/09 18:38:29;;;;;;;4.90;0.47;;;8.90;84.60;;;;;;4945903;28;20043;-77
2022/04/09 18:40:55;;;;;;;1.55;0.70;;;8.90;85.60;;;;;;4950802;28;20108;-77
2022/04/09 18:43:21;;;;;;;3.47;1.33;;;8.90;84.50;;;;;;4934048;28;20713;-77
2022/04/09 18:45:46;;;;;;;2.47;0.40;;;8.90;85.00;;;;;;4951838;28;20098;-77
2022/04/09 18:48:13;;;;;;;2.13;0.50;;;8.90;84.40;;;;;;4944978;29;20043;-77
2022/04/09 18:50:40;;;;;;;1.40;0.40;;;8.70;84.20;;;;;;4950734;29;20054;-77
2022/04/09 18:53:06;;;;;;;1.27;0.38;;;8.70;85.50;;;;;;4951251;29;20039;-77
2022/04/09 18:55:32;;;;;;;2.60;0.50;;;8.90;85.20;;;;;;4951490;29;20077;-77
2022/04/09 18:57:58;;;;;;;1.20;0.50;;;9.00;83.20;;;;;;4960223;28;20045;-77
2022/04/09 19:00:24;;;;;;;8.48;1.42;;;9.00;83.80;;;;;;4955591;28;20047;-77
2022/04/09 19:02:49;;;;;;;6.03;1.10;;;9.10;83.80;;;;;;4951242;28;20046;-77
2022/04/09 19:05:15;;;;;;;2.10;0.63;;;9.10;83.90;;;;;;4950659;28;20058;-77
2022/04/09 19:07:41;;;;;;;5.10;1.17;;;9.20;83.90;;;;;;4950994;28;20031;-77
2022/04/09 19:10:13;;;;;;;2.10;0.50;;;9.20;81.40;;;;;;4953718;28;20051;-77
2022/04/09 19:12:41;;;;;;;2.17;0.77;;;9.30;81.90;;;;;;4950915;29;20495;-77
2022/04/09 19:15:07;;;;;;;8.30;1.42;;;9.40;81.30;;;;;;4936166;29;20147;-77
2022/04/09 19:17:33;;;;;;;6.43;1.17;;;9.30;81.50;;;;;;4956189;28;20411;-77
2022/04/09 19:20:00;;;;;;;6.85;1.17;;;9.20;83.10;;;;;;4951507;28;20047;-77
2022/04/09 19:22:25;;;;;;;4.55;1.10;;;9.10;82.70;;;;;;4949977;28;20487;-77
2022/04/09 19:24:51;;;;;;;7.72;1.25;;;9.20;83.10;;;;;;4948782;29;20047;-77
2022/04/09 19:27:17;;;;;;;6.40;0.98;;;9.10;83.00;;;;;;4950746;28;20051;-77
2022/04/09 19:29:42;;;;;;;5.28;0.70;;;9.10;83.30;;;;;;4958045;28;20054;-78
2022/04/09 19:32:08;;;;;;;8.40;1.17;;;9.10;83.60;;;;;;4933654;29;20043;-78
2022/04/09 19:34:34;;;;;;;3.33;1.00;;;9.10;84.80;;;;;;4950957;28;20047;-78
2022/04/09 19:36:59;;;;;;;5.78;1.17;;;9.20;83.80;;;;;;4950592;29;20047;-78
2022/04/09 19:39:27;;;;;;;8.63;1.08;;;9.20;83.20;;;;;;4952031;28;20051;-78
2022/04/09 19:41:53;;;;;;;3.85;0.90;;;9.30;84.20;;;;;;4953965;28;20107;-78
2022/04/09 19:44:19;;;;;;;12.82;2.17;;;9.30;84.20;;;;;;4951519;29;20451;-78
2022/04/09 19:46:45;;;;;;;10.98;2.08;;;9.30;82.10;;;;;;4950955;28;20039;-77
2022/04/09 19:49:11;;;;;;;5.13;0.90;;;9.40;81.50;;;;;;4948975;28;20415;-77
2022/04/09 19:51:37;;;;;;;6.65;1.48;;;9.40;82.20;;;;;;4951430;28;20398;-76
2022/04/09 19:54:04;;;;;;;3.17;1.13;;;9.50;82.40;;;;;;4951309;29;20118;-76
2022/04/09 19:56:29;;;;;;;4.03;0.80;;;9.60;81.00;;;;;;4933862;29;20035;-77
2022/04/09 19:58:55;;;;;;;4.25;1.25;;;9.50;80.80;;;;;;4933877;29;20510;-76
2022/04/09 20:01:21;;;;;;;4.40;0.70;;;9.50;80.90;;;;;;4951599;28;20040;-76
2022/04/09 20:03:46;;;;;;;8.82;0.90;;;9.30;81.90;;;;;;4937593;28;20043;-76
2022/04/09 20:06:13;;;;;;;1.85;0.52;;;9.30;82.40;;;;;;4954327;28;20039;-76
2022/04/09 20:08:40;;;;;;;5.82;1.10;;;9.40;83.70;;;;;;4954328;28;20039;-76
2022/04/09 20:11:06;;;;;;;6.50;1.20;;;9.40;81.50;;;;;;4939886;29;20043;-77
2022/04/09 20:13:31;;;;;;;8.32;1.10;;;9.10;81.90;;;;;;4953815;28;20479;-77
2022/04/09 20:15:57;;;;;;;9.43;1.95;;;8.90;82.20;;;;;;4953383;28;20046;-77
2022/04/09 20:18:23;;;;;;;8.25;1.23;;;8.80;83.80;;;;;;4953302;28;20472;-76
2022/04/09 20:20:50;;;;;;;9.13;1.45;;;8.60;83.80;;;;;;4953839;28;20220;-77
2022/04/09 20:23:18;;;;;;;4.88;1.25;;;8.40;84.70;;;;;;4951189;28;20039;-76
2022/04/09 20:25:44;;;;;;;4.05;1.10;;;8.30;85.00;;;;;;4953015;28;20519;-77
2022/04/09 20:28:09;;;;;;;6.63;1.52;;;8.30;85.50;;;;;;4954141;28;20062;-76
2022/04/09 20:30:40;;;;;;;6.05;1.45;;;8.20;85.80;;;;;;4954401;28;20047;-77
2022/04/09 20:33:05;;;;;;;2.38;1.10;;;8.30;86.00;;;;;;4952134;28;20069;-76
2022/04/09 20:35:31;;;;;;;5.25;1.10;;;8.00;85.50;;;;;;4954520;28;20071;-77
2022/04/09 20:37:58;;;;;;;2.72;0.80;;;8.10;87.40;;;;;;4962260;28;20155;-77
2022/04/09 20:40:24;;;;;;;2.90;0.90;;;8.30;86.30;;;;;;4952192;28;20045;-76
2022/04/09 20:42:49;;;;;;;3.70;1.27;;;8.30;85.60;;;;;;4952583;28;20035;-76
2022/04/09 20:45:15;;;;;;;3.47;1.35;;;8.30;85.00;;;;;;4961360;28;20062;-77
2022/04/09 20:47:41;;;;;;;3.05;1.40;;;8.40;84.70;;;;;;4953170;28;20119;-76
2022/04/09 20:50:07;;;;;;;3.58;1.45;;;8.50;85.10;;;;;;4953649;28;20067;-78
2022/04/09 20:52:32;;;;;;;3.70;1.50;;;8.40;83.80;;;;;;4936336;29;20097;-79
2022/04/09 20:54:58;;;;;;;7.18;2.25;;;8.30;85.40;;;;;;4953218;28;20534;-78
2022/04/09 20:57:24;;;;;;;2.92;1.70;;;8.30;85.60;;;;;;4935721;29;20138;-78
2022/04/09 20:59:49;;;;;;;6.82;2.53;;;8.30;85.00;;;;;;4952942;28;20042;-78
2022/04/09 21:02:15;;;;;;;3.75;1.70;;;8.30;84.90;;;;;;4953119;28;20043;-79
2022/04/09 21:04:41;;;;;;;2.92;1.40;;;8.30;85.30;;;;;;4953365;28;20483;-78
2022/04/09 21:07:08;;;;;;;4.95;1.88;;;8.30;85.70;;;;;;4945535;28;20111;-78
2022/04/09 21:09:34;;;;;;;2.72;1.88;;;8.30;85.50;;;;;;4953062;28;20479;-78
2022/04/09 21:12:01;;;;;;;3.13;1.98;;;8.40;84.80;;;;;;4955941;28;20090;-79
2022/04/09 21:14:26;;;;;;;3.58;1.77;;;8.30;84.70;;;;;;4935687;29;20777;-78
2022/04/09 21:16:53;;;;;;;2.58;1.60;;;8.20;84.60;;;;;;4957434;28;20058;-78
2022/04/09 21:19:19;;;;;;;4.30;1.92;;;8.20;84.70;;;;;;4952897;29;20106;-78
2022/04/09 21:21:46;;;;;;;4.32;2.33;;;8.10;84.90;;;;;;4952942;29;20050;-78
2022/04/09 21:24:12;;;;;;;2.85;1.60;;;8.10;85.70;;;;;;4951156;28;20039;-78
2022/04/09 21:26:40;;;;;;;3.70;1.70;;;8.10;85.50;;;;;;4952390;29;20043;-78
2022/04/09 21:29:07;;;;;;;1.70;1.40;;;8.10;85.20;;;;;;4949642;28;20039;-78
2022/04/09 21:31:32;;;;;;;5.22;2.28;;;8.10;86.20;;;;;;4952182;28;20122;-78
2022/04/09 21:34:00;;;;;;;3.40;2.05;;;8.10;85.70;;;;;;4953327;29;20114;-78
2022/04/09 21:36:26;;;;;;;4.32;2.03;;;8.20;85.90;;;;;;4953477;28;20046;-78
2022/04/09 21:38:51;;;;;;;3.25;2.05;;;8.10;85.60;;;;;;4954452;29;20028;-78
2022/04/09 21:41:17;;;;;;;4.88;2.50;;;8.20;86.00;;;;;;4953167;29;20040;-78
2022/04/09 21:43:43;;;;;;;2.13;1.63;;;8.30;86.00;;;;;;4954307;29;20070;-79
2022/04/09 21:46:09;;;;;;;2.72;1.85;;;8.30;85.10;;;;;;4955320;28;20039;-79
2022/04/09 21:48:34;;;;;;;3.72;1.73;;;8.30;85.40;;;;;;4936504;29;20091;-80
2022/04/09 21:51:00;;;;;;;3.17;2.15;;;8.30;85.60;;;;;;4955035;28;20049;-80
2022/04/09 21:53:26;;;;;;;2.63;1.90;;;8.20;85.50;;;;;;4954693;28;20384;-81
2022/04/09 21:55:52;;;;;;;3.42;2.10;;;8.10;85.60;;;;;;4954183;28;20047;-80
2022/04/09 21:58:18;;;;;;;4.95;2.45;;;7.90;86.40;;;;;;4951789;28;20063;-80
2022/04/09 22:00:50;;;;;;;7.35;2.85;;;7.90;86.50;;;;;;4935389;28;20078;-80
2022/04/09 22:03:16;;;;;;;4.95;2.95;;;7.90;86.50;;;;;;4954150;28;20132;-79
2022/04/09 22:05:43;;;;;;;4.05;2.20;;;7.80;86.30;;;;;;4956605;28;20027;-81
2022/04/09 22:08:08;;;;;;;4.53;2.58;;;7.80;86.80;;;;;;4954376;29;20122;-81
2022/04/09 22:10:35;;;;;;;4.28;2.97;;;7.80;87.30;;;;;;4936070;29;20122;-82
2022/04/09 22:13:05;;;;;;;4.03;2.47;;;7.80;86.50;;;;;;4954065;28;20038;-84
2022/04/09 22:15:34;;;;;;;;;;;7.80;87.20;;;;;;4936473;29;20046;-81
2022/04/09 22:18:03;;;;;;;3.45;2.55;;;7.90;86.90;;;;;;4937056;29;20370;-80
2022/04/09 22:20:30;;;;;;;4.65;2.72;;;8.00;86.70;;;;;;4936393;29;20046;-80
2022/04/09 22:22:56;;;;;;;5.78;2.70;;;8.00;86.50;;;;;;4954014;28;20054;-79
2022/04/09 22:25:22;;;;;;;3.90;2.90;;;7.90;86.50;;;;;;4954458;28;20452;-80
2022/04/09 22:27:48;;;;;;;3.58;2.63;;;7.90;86.60;;;;;;4955184;28;20118;-79
2022/04/09 22:30:14;;;;;;;3.63;2.83;;;8.00;86.70;;;;;;4936849;29;20527;-79
2022/04/09 22:32:40;;;;;;;3.70;3.10;;;8.00;86.20;;;;;;4956253;28;20098;-79
2022/04/09 22:35:07;;;;;;;4.72;3.22;;;8.00;86.20;;;;;;4953277;28;20035;-79
2022/04/09 22:37:33;;;;;;;5.07;3.58;;;7.90;86.10;;;;;;4962498;28;20047;-79
2022/04/09 22:39:58;;;;;;;4.97;3.60;;;7.90;86.50;;;;;;4953149;28;20403;-79
2022/04/09 22:42:24;;;;;;;57.95;37.72;;;7.80;86.70;;;;;;4953823;28;20040;-79
2022/04/09 22:44:50;;;;;;;67.85;44.65;;;7.80;87.20;;;;;;4953728;28;20507;-79
2022/04/09 22:47:16;;;;;;;8.30;5.20;;;7.90;87.30;;;;;;4954066;28;20468;-80
2022/04/09 22:49:42;;;;;;;5.65;4.50;;;7.80;86.30;;;;;;4952443;28;20031;-79
2022/04/09 22:52:08;;;;;;;7.00;3.78;;;7.80;86.40;;;;;;4937306;28;20106;-80
2022/04/09 22:54:34;;;;;;;5.88;3.80;;;7.90;85.90;;;;;;4954282;28;20051;-80
2022/04/09 22:57:00;;;;;;;4.30;3.33;;;7.80;85.80;;;;;;4953924;28;20043;-81
2022/04/09 22:59:26;;;;;;;4.35;3.13;;;7.70;86.50;;;;;;4952730;29;20047;-81
2022/04/09 23:01:51;;;;;;;4.43;3.20;;;7.80;86.10;;;;;;4953700;28;20130;-81
2022/04/09 23:04:17;;;;;;;3.65;2.92;;;7.70;86.20;;;;;;4936255;29;20506;-81
2022/04/09 23:06:44;;;;;;;3.17;2.70;;;7.60;86.10;;;;;;4944033;29;20031;-80
2022/04/09 23:09:09;;;;;;;4.93;3.00;;;7.60;86.50;;;;;;4952315;28;20039;-78
2022/04/09 23:11:36;;;;;;;5.65;2.92;;;7.60;86.70;;;;;;4937542;29;20046;-83
2022/04/09 23:14:02;;;;;;;8.05;2.75;;;7.70;86.40;;;;;;4938123;29;20488;-84
2022/04/09 23:16:28;;;;;;;3.85;2.42;;;7.60;86.30;;;;;;4937290;29;20134;-84
2022/04/09 23:18:54;;;;;;;2.35;2.13;;;7.60;86.60;;;;;;4954872;29;20113;-85
2022/04/09 23:21:19;;;;;;;4.40;2.47;;;7.60;85.90;;;;;;4955398;28;21771;-85
2022/04/09 23:23:45;;;;;;;4.95;2.60;;;7.50;86.20;;;;;;4955559;29;20118;-85
2022/04/09 23:26:11;;;;;;;2.50;2.25;;;7.50;86.70;;;;;;4954895;28;20396;-85
2022/04/09 23:28:38;;;;;;;2.55;2.00;;;7.60;86.80;;;;;;4938222;29;20028;-83
2022/04/09 23:31:04;;;;;;;3.80;2.00;;;7.60;85.80;;;;;;4951193;28;20060;-81
2022/04/09 23:33:29;;;;;;;3.03;2.08;;;7.60;86.00;;;;;;4951708;28;20039;-81
2022/04/09 23:35:55;;;;;;;2.45;1.90;;;7.40;85.80;;;;;;4954422;28;20051;-79
2022/04/09 23:38:21;;;;;;;2.42;1.92;;;7.30;86.60;;;;;;4939914;28;20043;-81
2022/04/09 23:40:47;;;;;;;2.60;2.40;;;7.40;87.40;;;;;;4956834;28;20559;-81
2022/04/09 23:43:13;;;;;;;3.38;2.20;;;7.40;86.60;;;;;;4956483;28;20023;-81
2022/04/09 23:45:39;;;;;;;3.40;1.60;;;7.40;85.90;;;;;;4957742;28;20027;-81
2022/04/09 23:48:05;;;;;;;2.67;2.30;;;7.40;86.20;;;;;;4941023;29;20380;-82
2022/04/09 23:50:30;;;;;;;3.88;2.13;;;7.40;86.50;;;;;;4964777;28;20137;-81
2022/04/09 23:52:56;;;;;;;2.42;2.08;;;7.50;86.30;;;;;;4956850;28;20050;-81
2022/04/09 23:55:22;;;;;;;3.90;1.95;;;7.40;85.90;;;;;;4939560;29;20121;-81
2022/04/09 23:57:52;;;;;;;2.47;1.75;;;7.40;86.00;;;;;;4957158;28;20055;-81
